地図

経路データ

SID SEASON NUMBER BASIN SUBBASIN NAME ISO_TIME NATURE LAT LON WMO_WIND WMO_PRES WMO_AGENCY TRACK_TYPE DIST2LAND LANDFALL IFLAG USA_AGENCY USA_ATCF_ID USA_LAT USA_LON USA_RECORD USA_STATUS USA_WIND USA_PRES USA_SSHS USA_R34_NE USA_R34_SE USA_R34_SW USA_R34_NW USA_R50_NE USA_R50_SE USA_R50_SW USA_R50_NW USA_R64_NE USA_R64_SE USA_R64_SW USA_R64_NW USA_POCI USA_ROCI USA_RMW USA_EYE TOKYO_LAT TOKYO_LON TOKYO_GRADE TOKYO_WIND TOKYO_PRES TOKYO_R50_DIR TOKYO_R50_LONG TOKYO_R50_SHORT TOKYO_R30_DIR TOKYO_R30_LONG TOKYO_R30_SHORT TOKYO_LAND CMA_LAT CMA_LON CMA_CAT CMA_WIND CMA_PRES HKO_LAT HKO_LON HKO_CAT HKO_WIND HKO_PRES NEWDELHI_LAT NEWDELHI_LON NEWDELHI_GRADE NEWDELHI_WIND NEWDELHI_PRES NEWDELHI_CI NEWDELHI_DP NEWDELHI_POCI REUNION_LAT REUNION_LON REUNION_TYPE REUNION_WIND REUNION_PRES REUNION_TNUM REUNION_CI REUNION_RMW REUNION_R34_NE REUNION_R34_SE REUNION_R34_SW REUNION_R34_NW REUNION_R50_NE REUNION_R50_SE REUNION_R50_SW REUNION_R50_NW REUNION_R64_NE REUNION_R64_SE REUNION_R64_SW REUNION_R64_NW BOM_LAT BOM_LON BOM_TYPE BOM_WIND BOM_PRES BOM_TNUM BOM_CI BOM_RMW BOM_R34_NE BOM_R34_SE BOM_R34_SW BOM_R34_NW BOM_R50_NE BOM_R50_SE BOM_R50_SW BOM_R50_NW BOM_R64_NE BOM_R64_SE BOM_R64_SW BOM_R64_NW BOM_ROCI BOM_POCI BOM_EYE BOM_POS_METHOD BOM_PRES_METHOD NADI_LAT NADI_LON NADI_CAT NADI_WIND NADI_PRES WELLINGTON_LAT WELLINGTON_LON WELLINGTON_WIND WELLINGTON_PRES DS824_LAT DS824_LON DS824_STAGE DS824_WIND DS824_PRES TD9636_LAT TD9636_LON TD9636_STAGE TD9636_WIND TD9636_PRES TD9635_LAT TD9635_LON TD9635_WIND TD9635_PRES TD9635_ROCI NEUMANN_LAT NEUMANN_LON NEUMANN_CLASS NEUMANN_WIND NEUMANN_PRES MLC_LAT MLC_LON MLC_CLASS MLC_WIND MLC_PRES USA_GUST BOM_GUST BOM_GUST_PER REUNION_GUST REUNION_GUST_PER USA_SEAHGT USA_SEARAD_NE USA_SEARAD_SE USA_SEARAD_SW USA_SEARAD_NW STORM_SPEED STORM_DIR
1933298N13280 1933 69 NA CS NOT_NAMED 1933-10-25 06:00:00 TS 13.5000 -80.1000 25 hurdat_atl main 346 346 O_____________ hurdat_atl AL181933 13.5000 -80.1000 TD 25 -1 4 71
1933298N13280 1933 69 NA CS NOT_NAMED 1933-10-25 09:00:00 TS 13.5600 -79.9200 main 364 364 P_____________ AL181933 13.5600 -79.9200 TD 25 -1 4 76
1933298N13280 1933 69 NA CS NOT_NAMED 1933-10-25 12:00:00 TS 13.6000 -79.7000 25 hurdat_atl main 385 385 O_____________ hurdat_atl AL181933 13.6000 -79.7000 TD 25 -1 5 84
1933298N13280 1933 69 NA CS NOT_NAMED 1933-10-25 15:00:00 TS 13.6075 -79.4150 main 417 417 P_____________ AL181933 13.6075 -79.4150 TD 25 -1 6 90
1933298N13280 1933 69 NA CS NOT_NAMED 1933-10-25 18:00:00 TS 13.6000 -79.1000 25 hurdat_atl main 449 449 O_____________ hurdat_atl AL181933 13.6000 -79.1000 TD 25 -1 6 91
1933298N13280 1933 69 NA CS NOT_NAMED 1933-10-25 21:00:00 TS 13.5925 -78.8000 main 460 460 P_____________ AL181933 13.5925 -78.8000 TD 25 -1 6 90
1933298N13280 1933 69 NA CS NOT_NAMED 1933-10-26 00:00:00 TS 13.6000 -78.5000 25 hurdat_atl main 463 444 O_____________ hurdat_atl AL181933 13.6000 -78.5000 TD 25 -1 6 85
1933298N13280 1933 69 NA CS NOT_NAMED 1933-10-26 03:00:00 TS 13.6425 -78.1850 main 444 430 P_____________ AL181933 13.6425 -78.1850 TD 27 -1 6 80
1933298N13280 1933 69 NA CS NOT_NAMED 1933-10-26 06:00:00 TS 13.7000 -77.9000 30 hurdat_atl main 430 416 O_____________ hurdat_atl AL181933 13.7000 -77.9000 TD 30 -1 5 78
1933298N13280 1933 69 NA CS NOT_NAMED 1933-10-26 09:00:00 TS 13.7500 -77.6625 main 416 412 P_____________ AL181933 13.7500 -77.6625 TD 30 -1 4 76
1933298N13280 1933 69 NA CS NOT_NAMED 1933-10-26 12:00:00 TS 13.8000 -77.5000 30 hurdat_atl main 412 406 O_____________ hurdat_atl AL181933 13.8000 -77.5000 TD 30 -1 2 66
1933298N13280 1933 69 NA CS NOT_NAMED 1933-10-26 15:00:00 TS 13.8500 -77.4275 main 406 406 P_____________ AL181933 13.8500 -77.4275 TD 30 -1 1 43
1933298N13280 1933 69 NA CS NOT_NAMED 1933-10-26 18:00:00 TS 13.9000 -77.4000 30 hurdat_atl main 415 415 O_____________ hurdat_atl AL181933 13.9000 -77.4000 TD 30 -1 1 37
1933298N13280 1933 69 NA CS NOT_NAMED 1933-10-26 21:00:00 TS 13.9500 -77.3500 main 414 409 P_____________ AL181933 13.9500 -77.3500 TD 30 -1 1 43
1933298N13280 1933 69 NA CS NOT_NAMED 1933-10-27 00:00:00 TS 14.0000 -77.3000 30 hurdat_atl main 414 413 O_____________ hurdat_atl AL181933 14.0000 -77.3000 TD 30 -1 1 45
1933298N13280 1933 69 NA CS NOT_NAMED 1933-10-27 03:00:00 TS 14.0500 -77.2425 main 402 402 P_____________ AL181933 14.0500 -77.2425 TD 30 -1 1 43
1933298N13280 1933 69 NA CS NOT_NAMED 1933-10-27 06:00:00 TS 14.1000 -77.2000 30 hurdat_atl main 402 402 O_____________ hurdat_atl AL181933 14.1000 -77.2000 TD 30 -1 1 37
1933298N13280 1933 69 NA CS NOT_NAMED 1933-10-27 09:00:00 TS 14.1275 -77.1925 main 402 391 P_____________ AL181933 14.1275 -77.1925 TD 32 -1 1 0
1933298N13280 1933 69 NA CS NOT_NAMED 1933-10-27 12:00:00 TS 14.2000 -77.2000 35 hurdat_atl main 391 369 O_____________ hurdat_atl AL181933 14.2000 -77.2000 TS 35 0 2 354
1933298N13280 1933 69 NA CS NOT_NAMED 1933-10-27 15:00:00 TS 14.3700 -77.1925 main 369 346 P_____________ AL181933 14.3700 -77.1925 TS 35 0 4 0
1933298N13280 1933 69 NA CS NOT_NAMED 1933-10-27 18:00:00 TS 14.6000 -77.2000 35 hurdat_atl main 346 324 O_____________ hurdat_atl AL181933 14.6000 -77.2000 TS 35 0 5 354
1933298N13280 1933 69 NA CS NOT_NAMED 1933-10-27 21:00:00 TS 14.8425 -77.2425 main 324 291 P_____________ AL181933 14.8425 -77.2425 TS 37 0 5 349
1933298N13280 1933 69 NA CS NOT_NAMED 1933-10-28 00:00:00 TS 15.1000 -77.3000 40 hurdat_atl main 291 268 O_____________ hurdat_atl AL181933 15.1000 -77.3000 TS 40 0 5 349
1933298N13280 1933 69 NA CS NOT_NAMED 1933-10-28 03:00:00 TS 15.3575 -77.3500 main 258 235 P_____________ AL181933 15.3575 -77.3500 TS 42 0 5 349
1933298N13280 1933 69 NA CS NOT_NAMED 1933-10-28 06:00:00 TS 15.6000 -77.4000 45 hurdat_atl main 235 213 O_____________ hurdat_atl AL181933 15.6000 -77.4000 TS 45 0 5 348
1933298N13280 1933 69 NA CS NOT_NAMED 1933-10-28 09:00:00 TS 15.8075 -77.4500 main 215 192 P_____________ AL181933 15.8075 -77.4500 TS 47 0 4 347
1933298N13280 1933 69 NA CS NOT_NAMED 1933-10-28 12:00:00 TS 16.0000 -77.5000 50 hurdat_atl main 192 170 O_____________ hurdat_atl AL181933 16.0000 -77.5000 TS 50 0 4 347
1933298N13280 1933 69 NA CS NOT_NAMED 1933-10-28 15:00:00 TS 16.2000 -77.5500 main 173 151 P_____________ AL181933 16.2000 -77.5500 TS 55 0 4 347
1933298N13280 1933 69 NA CS NOT_NAMED 1933-10-28 18:00:00 TS 16.4000 -77.6000 60 hurdat_atl main 151 130 O_____________ hurdat_atl AL181933 16.4000 -77.6000 TS 60 0 4 345
1933298N13280 1933 69 NA CS NOT_NAMED 1933-10-28 21:00:00 TS 16.5925 -77.6575 main 134 113 P_____________ AL181933 16.5925 -77.6575 TS 65 1 4 347
1933298N13280 1933 69 NA CS NOT_NAMED 1933-10-29 00:00:00 TS 16.8000 -77.7000 70 hurdat_atl main 113 94 O_____________ hurdat_atl AL181933 16.8000 -77.7000 HU 70 1 5 356
1933298N13280 1933 69 NA CS NOT_NAMED 1933-10-29 03:00:00 TS 17.0425 -77.7075 main 94 67 P_____________ AL181933 17.0425 -77.7075 HU 72 1 5 2
1933298N13280 1933 69 NA CS NOT_NAMED 1933-10-29 06:00:00 TS 17.3000 -77.7000 75 hurdat_atl main 67 33 O_____________ hurdat_atl AL181933 17.3000 -77.7000 HU 75 1 5 3
1933298N13280 1933 69 NA CS NOT_NAMED 1933-10-29 09:00:00 TS 17.5650 -77.6701 main 33 11 P_____________ AL181933 17.5650 -77.6701 HU 77 1 5 2
1933298N13280 1933 69 NA CS NOT_NAMED 1933-10-29 12:00:00 TS 17.8000 -77.7000 80 hurdat_atl main 11 0 O_____________ hurdat_atl AL181933 17.8000 -77.7000 HU 80 1 5 330
1933298N13280 1933 69 NA CS NOT_NAMED 1933-10-29 15:00:00 TS 17.9576 -77.9074 main 10 10 P_____________ AL181933 17.9576 -77.9074 HU 80 1 5 308
1933298N13280 1933 69 NA CS NOT_NAMED 1933-10-29 18:00:00 TS 18.1000 -78.1000 80 982 hurdat_atl main 11 0 O_____________ hurdat_atl AL181933 18.1000 -78.1000 HU 80 982 1 4 332
1933298N13280 1933 69 NA CS NOT_NAMED 1933-10-29 21:00:00 TS 18.3075 -78.1026 main 0 0 P_____________ AL181933 18.3075 -78.1026 HU 75 1 4 13
1933298N13280 1933 69 NA CS NOT_NAMED 1933-10-30 00:00:00 TS 18.5000 -78.0000 70 hurdat_atl main 11 11 O_____________ hurdat_atl AL181933 18.5000 -78.0000 HU 70 1 4 36
1933298N13280 1933 69 NA CS NOT_NAMED 1933-10-30 03:00:00 TS 18.6225 -77.8575 main 22 22 P_____________ AL181933 18.6225 -77.8575 HU 67 1 3 55
1933298N13280 1933 69 NA CS NOT_NAMED 1933-10-30 06:00:00 TS 18.7000 -77.7000 65 hurdat_atl main 33 33 O_____________ hurdat_atl AL181933 18.7000 -77.7000 HU 65 1 3 62
1933298N13280 1933 69 NA CS NOT_NAMED 1933-10-30 09:00:00 TS 18.7499 -77.6074 main 33 33 P_____________ AL181933 18.7499 -77.6074 HU 62 0 2 62
1933298N13280 1933 69 NA CS NOT_NAMED 1933-10-30 12:00:00 TS 18.8000 -77.5000 60 hurdat_atl main 44 44 O_____________ hurdat_atl AL181933 18.8000 -77.5000 TS 60 0 3 65
1933298N13280 1933 69 NA CS NOT_NAMED 1933-10-30 15:00:00 TS 18.8850 -77.3075 main 55 55 P_____________ AL181933 18.8850 -77.3075 TS 60 0 4 62
1933298N13280 1933 69 NA CS NOT_NAMED 1933-10-30 18:00:00 TS 19.0000 -77.1000 60 hurdat_atl main 67 67 O_____________ hurdat_atl AL181933 19.0000 -77.1000 TS 60 0 4 54
1933298N13280 1933 69 NA CS NOT_NAMED 1933-10-30 21:00:00 TS 19.1425 -76.9350 main 78 70 P_____________ AL181933 19.1425 -76.9350 TS 57 0 4 43
1933298N13280 1933 69 NA CS NOT_NAMED 1933-10-31 00:00:00 TS 19.3000 -76.8000 55 hurdat_atl main 70 59 O_____________ hurdat_atl AL181933 19.3000 -76.8000 TS 55 0 4 36
1933298N13280 1933 69 NA CS NOT_NAMED 1933-10-31 03:00:00 TS 19.4500 -76.6925 main 64 44 P_____________ AL181933 19.4500 -76.6925 TS 55 0 4 32
1933298N13280 1933 69 NA CS NOT_NAMED 1933-10-31 06:00:00 TS 19.6000 -76.6000 55 hurdat_atl main 44 33 O_____________ hurdat_atl AL181933 19.6000 -76.6000 TS 55 0 3 33
1933298N13280 1933 69 NA CS NOT_NAMED 1933-10-31 09:00:00 TS 19.7425 -76.4925 main 33 11 P_____________ AL181933 19.7425 -76.4925 TS 55 0 4 32
1933298N13280 1933 69 NA CS NOT_NAMED 1933-10-31 12:00:00 TS 19.9000 -76.4000 55 hurdat_atl main 11 0 O_____________ hurdat_atl AL181933 19.9000 -76.4000 TS 55 0 4 23
1933298N13280 1933 69 NA NA NOT_NAMED 1933-10-31 15:00:00 TS 20.0925 -76.3350 main 0 0 P_____________ AL181933 20.0925 -76.3350 TS 52 0 4 13
1933298N13280 1933 69 NA NA NOT_NAMED 1933-10-31 18:00:00 TS 20.3000 -76.3000 50 hurdat_atl main 0 0 O_____________ hurdat_atl AL181933 20.3000 -76.3000 TS 50 0 4 5
1933298N13280 1933 69 NA NA NOT_NAMED 1933-10-31 21:00:00 TS 20.5000 -76.2850 main 0 0 P_____________ AL181933 20.5000 -76.2850 TS 47 0 4 0
1933298N13280 1933 69 NA NA NOT_NAMED 1933-11-01 00:00:00 TS 20.7000 -76.3000 45 hurdat_atl main 0 0 O_____________ hurdat_atl AL181933 20.7000 -76.3000 TS 45 0 4 352
1933298N13280 1933 69 NA NA NOT_NAMED 1933-11-01 03:00:00 TS 20.9000 -76.3425 main 0 0 P_____________ AL181933 20.9000 -76.3425 TS 42 0 4 347
1933298N13280 1933 69 NA NA NOT_NAMED 1933-11-01 06:00:00 TS 21.1000 -76.4000 40 hurdat_atl main 0 0 O_____________ hurdat_atl AL181933 21.1000 -76.4000 TS 40 0 4 346
1933298N13280 1933 69 NA NA NOT_NAMED 1933-11-01 09:00:00 TS 21.3075 -76.4575 main 11 11 P_____________ AL181933 21.3075 -76.4575 TS 42 0 4 347
1933298N13280 1933 69 NA NA NOT_NAMED 1933-11-01 12:00:00 TS 21.5000 -76.5000 45 hurdat_atl main 30 30 O_____________ hurdat_atl AL181933 21.5000 -76.5000 TS 45 0 4 353
1933298N13280 1933 69 NA NA NOT_NAMED 1933-11-01 15:00:00 TS 21.6650 -76.5075 main 49 49 P_____________ AL181933 21.6650 -76.5075 TS 45 0 3 0
1933298N13280 1933 69 NA NA NOT_NAMED 1933-11-01 18:00:00 TS 21.8000 -76.5000 45 hurdat_atl main 59 59 O_____________ hurdat_atl AL181933 21.8000 -76.5000 TS 45 0 2 6
1933298N13280 1933 69 NA NA NOT_NAMED 1933-11-01 21:00:00 TS 21.9075 -76.5000 main 65 65 P_____________ AL181933 21.9075 -76.5000 TS 45 0 2 8
1933298N13280 1933 69 NA NA NOT_NAMED 1933-11-02 00:00:00 TS 22.0000 -76.5000 45 hurdat_atl main 70 70 O_____________ hurdat_atl AL181933 22.0000 -76.5000 TS 45 0 2 7
1933298N13280 1933 69 NA NA NOT_NAMED 1933-11-02 03:00:00 TS 22.1000 -76.5000 main 76 76 P_____________ AL181933 22.1000 -76.5000 TS 45 0 2 8
1933298N13280 1933 69 NA NA NOT_NAMED 1933-11-02 06:00:00 TS 22.2000 -76.5000 45 hurdat_atl main 83 83 O_____________ hurdat_atl AL181933 22.2000 -76.5000 TS 45 0 2 5
1933298N13280 1933 69 NA NA NOT_NAMED 1933-11-02 09:00:00 TS 22.2850 -76.4851 main 91 91 P_____________ AL181933 22.2850 -76.4851 TS 42 0 2 8
1933298N13280 1933 69 NA NA NOT_NAMED 1933-11-02 12:00:00 TS 22.4000 -76.5000 40 hurdat_atl main 99 99 O_____________ hurdat_atl AL181933 22.4000 -76.5000 TS 40 0 3 343
1933298N13280 1933 69 NA NA NOT_NAMED 1933-11-02 15:00:00 TS 22.5850 -76.5850 main 113 113 P_____________ AL181933 22.5850 -76.5850 TS 40 0 4 335
1933298N13280 1933 69 NA NA NOT_NAMED 1933-11-02 18:00:00 TS 22.8000 -76.7000 40 hurdat_atl main 129 129 O_____________ hurdat_atl AL181933 22.8000 -76.7000 TS 40 0 5 334
1933298N13280 1933 69 NA NA NOT_NAMED 1933-11-02 21:00:00 TS 23.0000 -76.8075 main 148 148 P_____________ AL181933 23.0000 -76.8075 TS 40 0 4 335
1933298N13280 1933 69 NA NA NOT_NAMED 1933-11-03 00:00:00 TS 23.2000 -76.9000 40 hurdat_atl main 158 135 O_____________ hurdat_atl AL181933 23.2000 -76.9000 TS 40 0 4 340
1933298N13280 1933 69 NA NA NOT_NAMED 1933-11-03 03:00:00 TS 23.3925 -76.9650 main 135 120 P_____________ AL181933 23.3925 -76.9650 TS 40 0 4 348
1933298N13280 1933 69 NA NA NOT_NAMED 1933-11-03 06:00:00 TS 23.6000 -77.0000 40 hurdat_atl main 120 105 O_____________ hurdat_atl AL181933 23.6000 -77.0000 TS 40 0 5 356
1933298N13280 1933 69 NA NA NOT_NAMED 1933-11-03 09:00:00 TS 23.8425 -77.0150 main 105 83 P_____________ AL181933 23.8425 -77.0150 TS 40 0 5 2
1933298N13280 1933 69 NA NA NOT_NAMED 1933-11-03 12:00:00 TS 24.1000 -77.0000 40 hurdat_atl main 83 74 O_____________ hurdat_atl AL181933 24.1000 -77.0000 TS 40 0 5 3
1933298N13280 1933 69 NA NA NOT_NAMED 1933-11-03 15:00:00 TS 24.3575 -76.9725 main 71 70 P_____________ AL181933 24.3575 -76.9725 TS 40 0 5 10
1933298N13280 1933 69 NA NA NOT_NAMED 1933-11-03 18:00:00 TS 24.6000 -76.9000 40 hurdat_atl main 81 81 O_____________ hurdat_atl AL181933 24.6000 -76.9000 TS 40 0 5 22
1933298N13280 1933 69 NA NA NOT_NAMED 1933-11-03 21:00:00 TS 24.8075 -76.7725 main 96 96 P_____________ AL181933 24.8075 -76.7725 TS 42 0 5 34
1933298N13280 1933 69 NA NA NOT_NAMED 1933-11-04 00:00:00 TS 25.0000 -76.6000 45 hurdat_atl main 124 124 O_____________ hurdat_atl AL181933 25.0000 -76.6000 TS 45 0 5 40
1933298N13280 1933 69 NA NA NOT_NAMED 1933-11-04 03:00:00 TS 25.2000 -76.4075 main 151 151 P_____________ AL181933 25.2000 -76.4075 TS 45 0 5 42
1933298N13280 1933 69 NA NA NOT_NAMED 1933-11-04 06:00:00 TS 25.4000 -76.2000 45 hurdat_atl main 179 179 O_____________ hurdat_atl AL181933 25.4000 -76.2000 TS 45 0 5 40
1933298N13280 1933 69 NA NA NOT_NAMED 1933-11-04 09:00:00 TS 25.6149 -76.0224 main 206 206 P_____________ AL181933 25.6149 -76.0224 TS 45 0 5 42
1933298N13280 1933 69 NA NA NOT_NAMED 1933-11-04 12:00:00 TS 25.8000 -75.8000 45 hurdat_atl main 233 233 O_____________ hurdat_atl AL181933 25.8000 -75.8000 TS 45 0 6 58
1933298N13280 1933 69 NA NA NOT_NAMED 1933-11-04 15:00:00 TS 25.9150 -75.4799 main 265 265 P_____________ AL181933 25.9150 -75.4799 TS 45 0 7 72
1933298N13280 1933 69 NA NA NOT_NAMED 1933-11-04 18:00:00 TS 26.0000 -75.1000 45 hurdat_atl main 306 306 O_____________ hurdat_atl AL181933 26.0000 -75.1000 TS 45 0 7 75
1933298N13280 1933 69 NA NA NOT_NAMED 1933-11-04 21:00:00 TS 26.1074 -74.7075 main 347 347 P_____________ AL181933 26.1074 -74.7075 TS 42 0 7 74
1933298N13280 1933 69 NA NA NOT_NAMED 1933-11-05 00:00:00 TS 26.2000 -74.3000 40 hurdat_atl main 388 388 O_____________ hurdat_atl AL181933 26.2000 -74.3000 TS 40 0 7 78
1933298N13280 1933 69 NA NA NOT_NAMED 1933-11-05 03:00:00 TS 26.2573 -73.9074 main 429 429 P_____________ AL181933 26.2573 -73.9074 TS 40 0 7 82
1933298N13280 1933 69 NA NA NOT_NAMED 1933-11-05 06:00:00 TS 26.3000 -73.5000 40 hurdat_atl main 466 466 O_____________ hurdat_atl AL181933 26.3000 -73.5000 TS 40 0 8 84
1933298N13280 1933 69 NA NA NOT_NAMED 1933-11-05 09:00:00 TS 26.3424 -73.0649 main 503 503 P_____________ AL181933 26.3424 -73.0649 TS 40 0 8 83
1933298N13280 1933 69 NA NA NOT_NAMED 1933-11-05 12:00:00 TS 26.4000 -72.6000 40 hurdat_atl main 553 553 O_____________ hurdat_atl AL181933 26.4000 -72.6000 TS 40 0 9 81
1933298N13280 1933 69 NA NA NOT_NAMED 1933-11-05 15:00:00 TS 26.4848 -72.1149 main 599 599 P_____________ AL181933 26.4848 -72.1149 TS 40 0 9 77
1933298N13280 1933 69 NA NA NOT_NAMED 1933-11-05 18:00:00 TS 26.6000 -71.6000 40 hurdat_atl main 620 620 O_____________ hurdat_atl AL181933 26.6000 -71.6000 TS 40 0 10 74
1933298N13280 1933 69 NA NA NOT_NAMED 1933-11-05 21:00:00 TS 26.7498 -71.0651 main 644 644 P_____________ AL181933 26.7498 -71.0651 TS 40 0 10 73
1933298N13280 1933 69 NA NA NOT_NAMED 1933-11-06 00:00:00 TS 26.9000 -70.5000 40 hurdat_atl main 685 685 O_____________ hurdat_atl AL181933 26.9000 -70.5000 TS 40 0 11 76
1933298N13280 1933 69 NA NA NOT_NAMED 1933-11-06 03:00:00 TS 27.0072 -69.9148 main 720 720 P_____________ AL181933 27.0072 -69.9148 TS 40 0 11 79
1933298N13280 1933 69 NA NA NOT_NAMED 1933-11-06 06:00:00 TS 27.1000 -69.3000 40 hurdat_atl main 758 758 O_____________ hurdat_atl AL181933 27.1000 -69.3000 TS 40 0 11 81
1933298N13280 1933 69 NA NA NOT_NAMED 1933-11-06 09:00:00 TS 27.1847 -68.6646 main 799 799 P_____________ AL181933 27.1847 -68.6646 TS 40 0 12 80
1933298N13280 1933 69 NA NA NOT_NAMED 1933-11-06 12:00:00 TS 27.3000 -68.0000 40 hurdat_atl main 849 849 O_____________ hurdat_atl AL181933 27.3000 -68.0000 TS 40 0 12 77
1933298N13280 1933 69 NA NA NOT_NAMED 1933-11-06 15:00:00 TS 27.4622 -67.3145 main 909 909 P_____________ AL181933 27.4622 -67.3145 TS 40 0 13 72
1933298N13280 1933 69 NA NA NOT_NAMED 1933-11-06 18:00:00 TS 27.7000 -66.6000 40 hurdat_atl main 969 969 O_____________ hurdat_atl AL181933 27.7000 -66.6000 TS 40 0 14 67
1933298N13280 1933 69 NA NA NOT_NAMED 1933-11-06 21:00:00 TS 28.0120 -65.8720 main 1026 1026 P_____________ AL181933 28.0120 -65.8720 TS 40 0 15 62
1933298N13280 1933 69 NA NA NOT_NAMED 1933-11-07 00:00:00 TS 28.4000 -65.1000 40 hurdat_atl main 1101 1101 O_____________ hurdat_atl AL181933 28.4000 -65.1000 TS 40 0 16 60
1933298N13280 1933 69 NA NA NOT_NAMED 1933-11-07 03:00:00 TS 28.8195 -64.2791 main 1169 1169 P_____________ AL181933 28.8195 -64.2791 TS 40 0 17 59
1933298N13280 1933 69 NA NA NOT_NAMED 1933-11-07 06:00:00 TS 29.3000 -63.4000 40 hurdat_atl main 1238 1238 O_____________ hurdat_atl AL181933 29.3000 -63.4000 TS 40 0 18 58
1933298N13280 1933 69 NA NA NOT_NAMED 1933-11-07 09:00:00 TS 29.7886 -62.5071 main 1311 1311 P_____________ AL181933 29.7886 -62.5071 TS 40 0 20 56
1933298N13280 1933 69 NA NA NOT_NAMED 1933-11-07 12:00:00 TS 30.4000 -61.5000 40 hurdat_atl main 1403 1403 O_____________ hurdat_atl AL181933 30.4000 -61.5000 TS 40 0 24 53
1933298N13280 1933 69 NA NA NOT_NAMED 1933-11-07 15:00:00 TS 31.1983 -60.3116 main 1438 1390 P_____________ AL181933 31.1983 -60.3116 TS 40 0 27 52
1933298N13280 1933 69 NA NA NOT_NAMED 1933-11-07 18:00:00 TS 32.1000 -59.0000 40 hurdat_atl main 1383 O_____________ hurdat_atl AL181933 32.1000 -59.0000 TS 40 0 29 51

IBTrACS Databaseについて

本データベースは、米国NOAAが公開する1842年以降の世界の熱帯低気圧のベストトラックデータアーカイブInternational Best Track Archive for Climate Stewardship (IBTrACS)を、ウェブで閲覧しやすい形式に変換したものです。

最終更新日:2021-10-08